Warren, Canada
Current Conditions -  °F | °C
As of 5:00 AM on Thursday 23 Oct 2014 (Local Time) from CYSB Reporting Station
Clear Clear  
Wind Chill: 26°   Ceiling: Unl
Heat Index: 32°   Visibility: 15mi
Dew Point: 32°   Wind: 7mph
Humidity: 100%   Direction: 30°NNE
Pressure: 30.22"   Gusts: NA
Location:  46.43°N, 80.3°W
Report Text: CYSB 230900Z 03006KT 15SM SKC 00/M00 A3022 RMK FROIN SLP248
Loading
Personal Weather Stations






























Interactive Weather Map
Tropical Storm Tracking
New forecast layout! Learn more

10-Day Weather Forecast

Advertisements
Track Severe Weather on mobile